North Salt Lake
Center St & Main St, North Salt Lake
Last Weather Update:1/30/2012 11:00:00 PM
Date
ETo
ETc
Rain
Irrigation
Req
Temp
Max
Temp
Min
Temp
Avg
Avg RH
Avg Wind
Avg Solar
inches
inches
incehs
inches
F
F
F
%
%
watts/m2
12/1/2011 0.07" 0.00" 0.01" -0.01" 40.0° 27.6° 35.8° 56.3% 8.9 MPH 95.8w/m2
12/2/2011 0.03" 0.00" 0.00" 0.00" 37.9° 21.8° 29.1° 91.7% 2.6 MPH 88.8w/m2
12/3/2011 0.04" 0.00" 0.00" 0.00" 36.7° 21.3° 29.1° 74.4% 3.3 MPH 106.5w/m2
12/4/2011 0.02" 0.00" 0.00" 0.00" 30.1° 20.2° 26.0° 69.9% 2.2 MPH 47.9w/m2
12/5/2011 0.03" 0.00" 0.00" 0.00" 27.0° 13.8° 20.0° 69.1% 2.4 MPH 106.1w/m2
12/6/2011 0.03" 0.00" 0.00" 0.00" 32.0° 13.6° 21.2° 65.7% 1.5 MPH 93.8w/m2
12/7/2011 0.03" 0.00" 0.00" 0.00" 36.1° 15.1° 24.0° 80.4% 1.2 MPH 98.1w/m2
12/8/2011 0.03" 0.00" 0.00" 0.00" 36.0° 19.5° 27.3° 85.9% 1.6 MPH 96.6w/m2
12/9/2011 0.03" 0.00" 0.00" 0.00" 39.3° 19.6° 27.3° 81.0% 0.9 MPH 94.3w/m2
12/10/2011 0.03" 0.00" 0.00" 0.00" 39.4° 18.4° 26.9° 85.8% 1.3 MPH 96.5w/m2
12/11/2011 0.02" 0.00" 0.00" 0.00" 37.8° 19.4° 27.1° 92.0% 1.0 MPH 84.4w/m2
12/12/2011 0.02" 0.00" 0.00" 0.00" 45.5° 21.6° 30.2° 92.3% 1.0 MPH 66.6w/m2
12/13/2011 0.01" 0.00" 0.02" -0.02" 31.8° 25.9° 30.0° 96.3% 1.2 MPH 17.0w/m2
12/14/2011 0.01" 0.00" 0.01" -0.01" 32.5° 21.7° 28.8° 96.5% 0.6 MPH 26.6w/m2
12/15/2011 0.02" 0.00" 0.00" 0.00" 29.2° 22.7° 25.8° 87.0% 1.1 MPH 48.6w/m2
12/16/2011 0.01" 0.00" 0.00" 0.00" 29.6° 20.7° 26.0° 90.7% 1.4 MPH 43.2w/m2
12/17/2011 0.02" 0.00" 0.00" 0.00" 29.9° 18.1° 24.4° 92.5% 1.3 MPH 53.1w/m2
12/18/2011 0.02" 0.00" 0.00" 0.00" 30.6° 23.6° 25.7° 91.3% 1.6 MPH 75.7w/m2
12/19/2011 0.01" 0.00" 0.01" -0.01" 27.2° 22.6° 24.9° 85.4% 1.4 MPH 35.3w/m2
12/20/2011 0.01" 0.00" 0.00" 0.00" 31.1° 21.9° 26.3° 92.4% 1.9 MPH 36.8w/m2
12/21/2011 0.02" 0.00" 0.00" 0.00" 33.9° 21.6° 27.7° 87.7% 2.7 MPH 51.3w/m2
12/22/2011 0.03" 0.00" 0.00" 0.00" 34.6° 17.8° 25.9° 73.9% 2.2 MPH 96.3w/m2
12/23/2011 0.03" 0.00" 0.00" 0.00" 33.7° 14.0° 22.8° 76.6% 1.8 MPH 92.8w/m2
12/24/2011 0.03" 0.00" 0.00" 0.00" 33.9° 14.0° 23.0° 71.4% 1.5 MPH 94.1w/m2
12/25/2011 0.03" 0.00" 0.00" 0.00" 39.4° 16.1° 26.1° 75.1% 1.8 MPH 92.5w/m2
12/26/2011 0.02" 0.00" 0.00" 0.00" 40.3° 17.1° 25.6° 83.0% 1.4 MPH 86.5w/m2
12/27/2011 0.02" 0.00" 0.00" 0.00" 38.2° 18.3° 26.9° 70.0% 1.8 MPH 69.7w/m2
12/28/2011 0.03" 0.00" 0.00" 0.00" 48.9° 24.2° 35.7° 55.0% 1.7 MPH 36.2w/m2
12/29/2011 0.04" 0.00" 0.00" 0.00" 52.6° 36.5° 45.1° 53.2% 2.1 MPH 31.1w/m2
12/30/2011 0.12" 0.00" 0.00" 0.00" 59.0° 39.2° 52.6° 62.5% 7.7 MPH 46.4w/m2
12/31/2011 0.05" 0.00" 0.00" 0.00" 39.3° 22.9° 32.3° 58.2% 4.3 MPH 92.5w/m2
Totals: 0.89" 0.00" 0.05" -0.04" 59.0° 13.6° 28.4° 78.8% 2.2 MPH 71.0w/m2